sensor_id;sensor_type;location;lat;lon;timestamp;P1;durP1;ratioP1;P2;durP2;ratioP2
63900;SDS011;50538;53.482;10.294;2023-02-08T00:05:01;8.90;;;2.72;;
63900;SDS011;50538;53.482;10.294;2023-02-08T00:15:01;2.22;;;1.27;;
63900;SDS011;50538;53.482;10.294;2023-02-08T00:25:02;7.43;;;1.52;;
63900;SDS011;50538;53.482;10.294;2023-02-08T00:35:02;4.65;;;1.75;;
63900;SDS011;50538;53.482;10.294;2023-02-08T00:45:03;4.63;;;2.17;;
63900;SDS011;50538;53.482;10.294;2023-02-08T00:55:04;4.20;;;1.85;;
63900;SDS011;50538;53.482;10.294;2023-02-08T01:05:05;1.55;;;1.13;;
63900;SDS011;50538;53.482;10.294;2023-02-08T01:15:06;6.85;;;2.08;;
63900;SDS011;50538;53.482;10.294;2023-02-08T01:25:07;6.53;;;1.60;;
63900;SDS011;50538;53.482;10.294;2023-02-08T01:35:07;4.43;;;0.93;;
63900;SDS011;50538;53.482;10.294;2023-02-08T01:55:16;4.05;;;2.15;;
63900;SDS011;50538;53.482;10.294;2023-02-08T02:05:22;3.53;;;1.27;;
63900;SDS011;50538;53.482;10.294;2023-02-08T02:15:27;5.30;;;2.03;;
63900;SDS011;50538;53.482;10.294;2023-02-08T02:35:52;2.10;;;1.17;;
63900;SDS011;50538;53.482;10.294;2023-02-08T02:56:33;1.52;;;0.85;;
63900;SDS011;50538;53.482;10.294;2023-02-08T03:17:02;2.25;;;1.30;;
63900;SDS011;50538;53.482;10.294;2023-02-08T03:38:00;1.15;;;0.82;;
63900;SDS011;50538;53.482;10.294;2023-02-08T03:48:05;2.40;;;1.63;;
63900;SDS011;50538;53.482;10.294;2023-02-08T03:58:16;4.18;;;2.03;;
63900;SDS011;50538;53.482;10.294;2023-02-08T04:08:22;1.55;;;1.00;;
63900;SDS011;50538;53.482;10.294;2023-02-08T04:18:22;5.28;;;2.60;;
63900;SDS011;50538;53.482;10.294;2023-02-08T04:28:22;1.35;;;0.98;;
63900;SDS011;50538;53.482;10.294;2023-02-08T04:38:23;3.03;;;1.70;;
63900;SDS011;50538;53.482;10.294;2023-02-08T04:48:23;3.63;;;0.90;;
63900;SDS011;50538;53.482;10.294;2023-02-08T04:58:24;4.68;;;2.05;;
63900;SDS011;50538;53.482;10.294;2023-02-08T05:08:24;4.47;;;0.73;;
63900;SDS011;50538;53.482;10.294;2023-02-08T05:18:25;2.45;;;1.40;;
63900;SDS011;50538;53.482;10.294;2023-02-08T05:28:25;8.77;;;2.35;;
63900;SDS011;50538;53.482;10.294;2023-02-08T05:38:26;2.65;;;1.30;;
63900;SDS011;50538;53.482;10.294;2023-02-08T05:48:26;6.72;;;2.22;;
63900;SDS011;50538;53.482;10.294;2023-02-08T05:58:28;6.30;;;2.90;;
63900;SDS011;50538;53.482;10.294;2023-02-08T06:08:28;5.20;;;2.17;;
63900;SDS011;50538;53.482;10.294;2023-02-08T06:18:28;8.23;;;2.65;;
63900;SDS011;50538;53.482;10.294;2023-02-08T06:28:29;6.35;;;1.52;;
63900;SDS011;50538;53.482;10.294;2023-02-08T06:38:29;8.85;;;3.47;;
63900;SDS011;50538;53.482;10.294;2023-02-08T06:48:30;7.97;;;2.80;;
63900;SDS011;50538;53.482;10.294;2023-02-08T06:58:30;11.60;;;3.20;;
63900;SDS011;50538;53.482;10.294;2023-02-08T07:08:31;7.68;;;2.35;;
63900;SDS011;50538;53.482;10.294;2023-02-08T07:18:32;13.90;;;4.20;;
63900;SDS011;50538;53.482;10.294;2023-02-08T07:28:33;4.97;;;2.03;;
63900;SDS011;50538;53.482;10.294;2023-02-08T07:38:35;10.73;;;3.25;;
63900;SDS011;50538;53.482;10.294;2023-02-08T07:48:36;5.18;;;2.92;;
63900;SDS011;50538;53.482;10.294;2023-02-08T07:58:36;6.10;;;1.95;;
63900;SDS011;50538;53.482;10.294;2023-02-08T08:08:37;6.15;;;2.60;;
63900;SDS011;50538;53.482;10.294;2023-02-08T08:18:38;13.52;;;4.35;;
63900;SDS011;50538;53.482;10.294;2023-02-08T08:28:39;15.35;;;5.10;;
63900;SDS011;50538;53.482;10.294;2023-02-08T08:38:40;10.25;;;3.85;;
63900;SDS011;50538;53.482;10.294;2023-02-08T08:48:40;7.32;;;2.83;;
63900;SDS011;50538;53.482;10.294;2023-02-08T08:58:42;15.25;;;5.93;;
63900;SDS011;50538;53.482;10.294;2023-02-08T09:08:42;16.05;;;4.20;;
63900;SDS011;50538;53.482;10.294;2023-02-08T09:18:43;9.00;;;4.13;;
63900;SDS011;50538;53.482;10.294;2023-02-08T09:28:44;12.18;;;4.45;;
63900;SDS011;50538;53.482;10.294;2023-02-08T09:38:45;12.95;;;4.90;;
63900;SDS011;50538;53.482;10.294;2023-02-08T09:48:47;12.55;;;3.95;;
63900;SDS011;50538;53.482;10.294;2023-02-08T09:58:51;16.05;;;4.72;;
63900;SDS011;50538;53.482;10.294;2023-02-08T10:08:52;18.58;;;4.90;;
63900;SDS011;50538;53.482;10.294;2023-02-08T10:39:33;10.88;;;4.65;;
63900;SDS011;50538;53.482;10.294;2023-02-08T11:00:00;13.95;;;5.80;;
63900;SDS011;50538;53.482;10.294;2023-02-08T11:20:33;16.70;;;4.45;;
63900;SDS011;50538;53.482;10.294;2023-02-08T11:30:36;12.77;;;4.15;;
63900;SDS011;50538;53.482;10.294;2023-02-08T11:40:37;16.38;;;4.57;;
63900;SDS011;50538;53.482;10.294;2023-02-08T11:50:43;13.65;;;4.47;;
63900;SDS011;50538;53.482;10.294;2023-02-08T12:00:56;10.02;;;3.58;;
63900;SDS011;50538;53.482;10.294;2023-02-08T12:41:40;4.10;;;2.37;;
63900;SDS011;50538;53.482;10.294;2023-02-08T12:52:02;11.57;;;3.90;;
63900;SDS011;50538;53.482;10.294;2023-02-08T13:12:20;11.45;;;4.05;;
63900;SDS011;50538;53.482;10.294;2023-02-08T13:32:27;11.13;;;3.10;;
63900;SDS011;50538;53.482;10.294;2023-02-08T13:42:37;13.57;;;4.07;;
63900;SDS011;50538;53.482;10.294;2023-02-08T13:52:47;9.18;;;3.50;;
63900;SDS011;50538;53.482;10.294;2023-02-08T14:03:01;21.17;;;6.22;;
63900;SDS011;50538;53.482;10.294;2023-02-08T14:13:22;20.05;;;5.32;;
63900;SDS011;50538;53.482;10.294;2023-02-08T14:23:30;12.52;;;4.30;;
63900;SDS011;50538;53.482;10.294;2023-02-08T14:33:34;11.95;;;3.63;;
63900;SDS011;50538;53.482;10.294;2023-02-08T14:43:38;15.60;;;4.80;;
63900;SDS011;50538;53.482;10.294;2023-02-08T14:53:42;12.73;;;4.50;;
63900;SDS011;50538;53.482;10.294;2023-02-08T15:13:49;13.35;;;4.45;;
63900;SDS011;50538;53.482;10.294;2023-02-08T15:24:10;12.00;;;3.58;;
63900;SDS011;50538;53.482;10.294;2023-02-08T15:34:13;7.90;;;3.40;;
63900;SDS011;50538;53.482;10.294;2023-02-08T15:44:19;10.18;;;3.72;;
63900;SDS011;50538;53.482;10.294;2023-02-08T15:54:22;7.97;;;3.35;;
63900;SDS011;50538;53.482;10.294;2023-02-08T16:04:24;12.43;;;2.65;;
63900;SDS011;50538;53.482;10.294;2023-02-08T16:14:24;7.88;;;2.95;;
63900;SDS011;50538;53.482;10.294;2023-02-08T16:24:26;10.13;;;3.38;;
63900;SDS011;50538;53.482;10.294;2023-02-08T16:34:27;5.45;;;2.78;;
63900;SDS011;50538;53.482;10.294;2023-02-08T16:44:33;9.45;;;3.40;;
63900;SDS011;50538;53.482;10.294;2023-02-08T16:54:35;12.57;;;4.20;;
63900;SDS011;50538;53.482;10.294;2023-02-08T17:04:35;10.80;;;3.50;;
63900;SDS011;50538;53.482;10.294;2023-02-08T17:14:35;13.95;;;4.40;;
63900;SDS011;50538;53.482;10.294;2023-02-08T17:24:36;9.90;;;2.78;;
63900;SDS011;50538;53.482;10.294;2023-02-08T17:34:36;10.52;;;4.03;;
63900;SDS011;50538;53.482;10.294;2023-02-08T17:44:38;13.65;;;4.20;;
63900;SDS011;50538;53.482;10.294;2023-02-08T17:54:39;13.07;;;4.95;;
63900;SDS011;50538;53.482;10.294;2023-02-08T18:04:39;12.38;;;4.30;;
63900;SDS011;50538;53.482;10.294;2023-02-08T18:14:39;20.80;;;7.13;;
63900;SDS011;50538;53.482;10.294;2023-02-08T18:24:40;14.45;;;4.63;;
63900;SDS011;50538;53.482;10.294;2023-02-08T18:34:40;9.38;;;3.75;;
63900;SDS011;50538;53.482;10.294;2023-02-08T18:44:42;12.07;;;3.70;;
63900;SDS011;50538;53.482;10.294;2023-02-08T18:54:42;15.82;;;4.80;;
63900;SDS011;50538;53.482;10.294;2023-02-08T19:04:42;12.70;;;5.10;;
63900;SDS011;50538;53.482;10.294;2023-02-08T19:14:43;11.20;;;4.00;;
63900;SDS011;50538;53.482;10.294;2023-02-08T19:24:43;18.45;;;4.38;;
63900;SDS011;50538;53.482;10.294;2023-02-08T19:34:44;11.80;;;4.15;;
63900;SDS011;50538;53.482;10.294;2023-02-08T19:44:45;11.88;;;4.10;;
63900;SDS011;50538;53.482;10.294;2023-02-08T19:54:47;12.40;;;3.80;;
63900;SDS011;50538;53.482;10.294;2023-02-08T20:04:48;11.68;;;3.65;;
63900;SDS011;50538;53.482;10.294;2023-02-08T20:14:49;12.70;;;3.22;;
63900;SDS011;50538;53.482;10.294;2023-02-08T20:24:49;7.15;;;2.92;;
63900;SDS011;50538;53.482;10.294;2023-02-08T20:34:49;9.70;;;2.97;;
63900;SDS011;50538;53.482;10.294;2023-02-08T20:44:50;5.35;;;2.63;;
63900;SDS011;50538;53.482;10.294;2023-02-08T20:54:52;6.85;;;3.35;;
63900;SDS011;50538;53.482;10.294;2023-02-08T21:04:52;8.80;;;3.83;;
63900;SDS011;50538;53.482;10.294;2023-02-08T21:14:53;10.75;;;3.30;;
63900;SDS011;50538;53.482;10.294;2023-02-08T21:24:53;11.48;;;3.65;;
63900;SDS011;50538;53.482;10.294;2023-02-08T21:34:53;10.63;;;5.13;;
63900;SDS011;50538;53.482;10.294;2023-02-08T21:44:54;12.75;;;5.32;;
63900;SDS011;50538;53.482;10.294;2023-02-08T21:54:54;12.85;;;4.07;;
63900;SDS011;50538;53.482;10.294;2023-02-08T22:04:55;9.50;;;3.72;;
63900;SDS011;50538;53.482;10.294;2023-02-08T22:15:19;8.45;;;3.92;;
63900;SDS011;50538;53.482;10.294;2023-02-08T22:25:22;7.30;;;4.20;;
63900;SDS011;50538;53.482;10.294;2023-02-08T22:35:23;7.13;;;3.93;;
63900;SDS011;50538;53.482;10.294;2023-02-08T22:45:23;9.95;;;3.83;;
63900;SDS011;50538;53.482;10.294;2023-02-08T22:55:23;9.25;;;3.85;;
63900;SDS011;50538;53.482;10.294;2023-02-08T23:05:24;10.48;;;3.67;;
63900;SDS011;50538;53.482;10.294;2023-02-08T23:15:24;18.75;;;3.97;;
63900;SDS011;50538;53.482;10.294;2023-02-08T23:25:25;12.25;;;4.82;;
63900;SDS011;50538;53.482;10.294;2023-02-08T23:35:26;13.35;;;4.72;;
63900;SDS011;50538;53.482;10.294;2023-02-08T23:45:26;14.45;;;4.63;;
63900;SDS011;50538;53.482;10.294;2023-02-08T23:55:29;12.38;;;4.20;;
